Time;durP1;ratioP1;P1;durP2;ratioP2;P2;SDS_P1;SDS_P2;PMS_P1;PMS_P2;Temp;Humidity;BMP_temperature;BMP_pressure;BME280_temperature;BME280_humidity;BME280_pressure;Samples;Min_cycle;Max_cycle;Signal;HPM_P1;HPM_P2
2023/10/03 00:02:21;;;;;;;2.50;1.60;;;13.80;99.90;;;;;;5094933;28;20422;-63
2023/10/03 00:04:48;;;;;;;4.27;1.73;;;13.70;99.90;;;;;;5094651;28;20430;-63
2023/10/03 00:07:14;;;;;;;4.73;1.80;;;13.80;99.90;;;;;;5094108;28;20623;-63
2023/10/03 00:09:40;;;;;;;6.50;2.50;;;13.70;99.90;;;;;;5094500;28;20536;-63
2023/10/03 00:12:05;;;;;;;2.93;2.73;;;13.70;99.90;;;;;;5093608;28;20172;-63
2023/10/03 00:14:31;;;;;;;6.83;2.63;;;13.70;99.90;;;;;;5094477;28;20200;-63
2023/10/03 00:16:57;;;;;;;2.30;0.97;;;13.60;99.90;;;;;;5094107;28;20207;-63
2023/10/03 00:19:22;;;;;;;3.00;2.70;;;13.60;99.90;;;;;;5094230;28;20657;-63
2023/10/03 00:21:48;;;;;;;8.30;3.20;;;13.60;99.90;;;;;;5094391;28;20173;-63
2023/10/03 00:24:16;;;;;;;2.13;2.03;;;13.80;99.90;;;;;;5094463;28;20180;-63
2023/10/03 00:26:44;;;;;;;4.70;2.47;;;13.60;99.90;;;;;;5093786;28;20454;-63
2023/10/03 00:29:13;;;;;;;5.37;2.53;;;13.60;99.90;;;;;;5094287;28;20509;-63
2023/10/03 00:31:39;;;;;;;2.93;2.13;;;13.60;99.90;;;;;;5094244;28;20410;-63
2023/10/03 00:34:05;;;;;;;3.83;3.53;;;13.60;99.90;;;;;;5094114;28;20399;-63
2023/10/03 00:36:31;;;;;;;3.27;2.93;;;13.60;99.90;;;;;;5093645;28;20475;-62
2023/10/03 00:38:57;;;;;;;5.90;3.73;;;13.60;99.90;;;;;;5094115;28;20415;-63
2023/10/03 00:41:23;;;;;;;2.83;2.63;;;13.60;99.90;;;;;;5093872;28;20430;-63
2023/10/03 00:44:01;;;;;;;4.03;2.97;;;13.60;99.90;;;;;;5093926;28;20408;-63
2023/10/03 00:46:29;;;;;;;2.10;2.00;;;13.60;99.90;;;;;;5093454;28;20204;-63
2023/10/03 00:48:56;;;;;;;2.13;1.93;;;13.60;99.90;;;;;;5093678;28;20490;-63
2023/10/03 00:51:23;;;;;;;2.73;2.00;;;13.60;99.90;;;;;;5093842;28;20438;-63
2023/10/03 00:53:55;;;;;;;8.67;3.67;;;13.50;99.90;;;;;;5093780;28;20407;-64
2023/10/03 00:56:21;;;;;;;3.43;3.13;;;13.40;99.90;;;;;;5093292;28;20415;-62
2023/10/03 00:58:47;;;;;;;9.47;4.30;;;13.40;99.90;;;;;;5093740;28;20418;-63
2023/10/03 01:01:12;;;;;;;3.17;2.33;;;13.50;99.90;;;;;;5093343;28;20219;-63
2023/10/03 01:03:38;;;;;;;3.47;3.20;;;13.50;99.90;;;;;;5093702;28;20411;-63
2023/10/03 01:06:09;;;;;;;3.80;2.80;;;13.50;99.90;;;;;;5093098;28;20201;-63
2023/10/03 01:08:42;;;;;;;1.90;1.70;;;13.50;99.90;;;;;;5093508;28;20493;-62
2023/10/03 01:11:18;;;;;;;1.63;1.53;;;13.50;99.90;;;;;;5093335;28;20427;-63
2023/10/03 01:13:49;;;;;;;1.40;1.30;;;13.50;99.90;;;;;;5093208;28;20399;-63
2023/10/03 01:16:28;;;;;;;2.90;2.07;;;13.60;99.90;;;;;;5092893;28;20497;-63
2023/10/03 01:18:58;;;;;;;1.73;1.40;;;13.50;99.90;;;;;;5093165;28;20490;-63
2023/10/03 01:21:25;;;;;;;8.03;1.83;;;13.50;99.90;;;;;;5093042;28;20460;-63
2023/10/03 01:23:50;;;;;;;5.73;3.17;;;13.50;99.90;;;;;;5093142;28;20837;-63
2023/10/03 01:26:17;;;;;;;8.83;3.87;;;13.50;99.90;;;;;;5092589;28;20450;-63
2023/10/03 01:28:43;;;;;;;3.07;2.83;;;13.60;99.90;;;;;;5093015;28;20267;-62
2023/10/03 01:31:10;;;;;;;5.03;4.00;;;13.50;99.90;;;;;;5092828;28;21115;-63
2023/10/03 01:33:36;;;;;;;3.33;2.63;;;13.50;99.90;;;;;;5092741;28;20414;-63
2023/10/03 01:36:03;;;;;;;5.77;2.03;;;13.50;99.90;;;;;;5092474;28;20506;-63
2023/10/03 01:38:29;;;;;;;2.13;1.93;;;13.50;99.90;;;;;;5092831;28;20410;-63
2023/10/03 01:41:00;;;;;;;1.13;1.03;;;13.50;99.90;;;;;;5092500;28;20472;-63
2023/10/03 01:43:26;;;;;;;5.30;3.53;;;13.50;99.90;;;;;;5092760;28;20885;-64
2023/10/03 01:45:55;;;;;;;3.90;1.63;;;13.50;99.90;;;;;;5092068;28;20458;-64
2023/10/03 01:48:20;;;;;;;8.63;1.77;;;13.60;99.90;;;;;;5092572;28;20445;-63
2023/10/03 01:50:50;;;;;;;2.83;2.63;;;13.60;99.90;;;;;;5092512;28;20419;-63
2023/10/03 01:53:16;;;;;;;8.60;2.03;;;13.60;99.90;;;;;;5092482;28;20544;-63
2023/10/03 01:55:42;;;;;;;3.53;1.73;;;13.60;99.90;;;;;;5092388;28;20412;-64
2023/10/03 01:58:08;;;;;;;6.13;2.27;;;13.60;99.90;;;;;;5092391;28;20406;-63
2023/10/03 02:00:36;;;;;;;1.70;1.60;;;13.60;99.90;;;;;;5092328;28;20481;-63
2023/10/03 02:03:05;;;;;;;2.83;2.00;;;13.50;99.90;;;;;;5092460;28;20195;-63
2023/10/03 02:05:38;;;;;;;2.03;1.27;;;13.50;99.90;;;;;;5092192;28;20502;-63
2023/10/03 02:08:10;;;;;;;3.70;2.23;;;13.60;99.90;;;;;;5092044;28;20395;-63
2023/10/03 02:10:36;;;;;;;1.43;1.23;;;13.50;99.90;;;;;;5092375;28;20491;-63
2023/10/03 02:13:09;;;;;;;2.77;2.03;;;13.50;99.90;;;;;;5092172;28;20900;-63
2023/10/03 02:15:36;;;;;;;7.90;3.40;;;13.40;99.90;;;;;;5092099;28;20414;-63
2023/10/03 02:18:02;;;;;;;4.47;1.50;;;13.40;99.90;;;;;;5092339;28;20415;-62
2023/10/03 02:20:30;;;;;;;1.70;1.57;;;13.40;99.90;;;;;;5091822;28;20887;-63
2023/10/03 02:22:56;;;;;;;1.37;0.87;;;13.40;99.90;;;;;;5092206;28;20415;-63
2023/10/03 02:25:28;;;;;;;1.23;1.13;;;13.30;99.90;;;;;;5092106;28;20412;-64
2023/10/03 02:27:56;;;;;;;8.23;1.70;;;13.30;99.90;;;;;;5091687;28;20459;-64
2023/10/03 02:30:23;;;;;;;3.27;2.23;;;13.30;99.90;;;;;;5091706;28;20457;-63
2023/10/03 02:32:52;;;;;;;4.00;2.53;;;13.40;99.90;;;;;;5092362;28;20399;-63
2023/10/03 02:35:19;;;;;;;1.60;1.50;;;13.30;99.90;;;;;;5091371;28;20428;-62
2023/10/03 02:37:47;;;;;;;6.90;1.80;;;13.30;99.90;;;;;;5091541;28;20423;-63
2023/10/03 02:40:15;;;;;;;1.97;1.87;;;13.30;99.90;;;;;;5090249;28;20482;-63
2023/10/03 02:42:40;;;;;;;3.53;1.73;;;13.30;99.90;;;;;;5091659;28;20440;-63
2023/10/03 02:45:08;;;;;;;8.43;2.80;;;13.30;99.90;;;;;;5091664;28;20407;-63
2023/10/03 02:47:37;;;;;;;2.23;2.10;;;13.20;99.90;;;;;;5091273;28;20714;-63
2023/10/03 02:50:03;;;;;;;2.60;2.40;;;13.20;99.90;;;;;;5091545;28;20427;-63
2023/10/03 02:52:29;;;;;;;1.50;1.17;;;13.30;99.90;;;;;;5091513;28;20434;-63
2023/10/03 02:54:54;;;;;;;2.70;1.20;;;13.30;99.90;;;;;;5091477;28;20415;-63
2023/10/03 02:57:21;;;;;;;1.17;1.07;;;13.30;99.90;;;;;;5091280;28;20672;-63
2023/10/03 02:59:47;;;;;;;4.20;1.57;;;13.30;99.90;;;;;;5091668;28;20339;-63
2023/10/03 03:02:14;;;;;;;2.33;2.13;;;13.30;99.90;;;;;;5091693;28;20977;-63
2023/10/03 03:04:43;;;;;;;8.47;2.63;;;13.40;99.90;;;;;;5091514;28;20407;-63
2023/10/03 03:07:10;;;;;;;3.10;2.90;;;13.40;99.90;;;;;;5091091;28;20982;-63
2023/10/03 03:09:36;;;;;;;2.50;1.57;;;13.40;99.90;;;;;;5091538;28;21004;-63
2023/10/03 03:12:04;;;;;;;4.07;2.90;;;13.40;99.90;;;;;;5091531;28;20415;-63
2023/10/03 03:14:30;;;;;;;2.43;1.80;;;13.40;99.90;;;;;;5091414;28;20443;-63
2023/10/03 03:16:56;;;;;;;3.70;2.40;;;13.40;99.90;;;;;;5091055;28;20451;-62
2023/10/03 03:19:23;;;;;;;2.37;1.87;;;13.40;99.90;;;;;;5091303;28;20434;-63
2023/10/03 03:21:50;;;;;;;2.03;1.87;;;13.40;99.90;;;;;;5091266;28;20554;-63
2023/10/03 03:24:33;;;;;;;3.47;1.57;;;13.40;99.90;;;;;;5091493;28;20445;-63
2023/10/03 03:26:59;;;;;;;2.50;1.40;;;13.40;99.90;;;;;;5090936;28;20710;-63
2023/10/03 03:29:35;;;;;;;3.40;1.80;;;13.30;99.90;;;;;;5091156;28;20438;-63
2023/10/03 03:32:01;;;;;;;2.60;2.40;;;13.40;99.90;;;;;;5091290;28;20435;-63
2023/10/03 03:34:28;;;;;;;1.80;1.47;;;13.40;99.90;;;;;;5091131;28;20506;-63
2023/10/03 03:36:55;;;;;;;4.43;1.23;;;13.40;99.90;;;;;;5090921;28;20407;-63
2023/10/03 03:39:21;;;;;;;3.53;1.50;;;13.40;99.90;;;;;;5091230;28;20533;-62
2023/10/03 03:41:48;;;;;;;1.90;1.10;;;13.40;99.90;;;;;;5091153;28;20406;-63
2023/10/03 03:44:14;;;;;;;1.93;1.27;;;13.50;99.90;;;;;;5091130;28;20250;-63
2023/10/03 03:46:41;;;;;;;5.00;3.20;;;13.50;99.90;;;;;;5090728;28;20522;-63
2023/10/03 03:49:08;;;;;;;3.40;1.93;;;13.40;99.90;;;;;;5094527;28;20181;-63
2023/10/03 03:51:34;;;;;;;1.27;1.17;;;13.40;99.90;;;;;;5094900;28;20410;-63
2023/10/03 03:54:00;;;;;;;2.90;1.57;;;13.50;99.90;;;;;;5094951;28;20404;-64
2023/10/03 03:56:26;;;;;;;2.27;2.07;;;13.40;99.90;;;;;;5094396;28;20596;-63
2023/10/03 03:58:52;;;;;;;3.17;1.63;;;13.50;99.90;;;;;;5094327;28;20405;-66
2023/10/03 04:01:19;;;;;;;3.20;2.70;;;13.40;99.90;;;;;;5094354;28;20243;-65
2023/10/03 04:03:54;;;;;;;1.80;1.27;;;13.40;99.90;;;;;;5094635;28;20440;-63
2023/10/03 04:06:20;;;;;;;1.13;0.77;;;13.50;99.90;;;;;;5093901;28;20813;-64
2023/10/03 04:08:46;;;;;;;2.40;1.20;;;13.50;99.90;;;;;;5094531;28;20426;-64
2023/10/03 04:11:13;;;;;;;2.87;2.20;;;13.60;99.90;;;;;;5094486;28;20453;-64
2023/10/03 04:13:49;;;;;;;1.90;1.20;;;13.60;99.90;;;;;;5094494;28;20487;-63
2023/10/03 04:16:20;;;;;;;1.50;1.40;;;13.70;99.90;;;;;;5094197;28;20390;-64
2023/10/03 04:18:49;;;;;;;3.80;1.93;;;13.70;99.90;;;;;;5094688;28;20407;-65
2023/10/03 04:21:15;;;;;;;2.20;1.70;;;13.70;99.90;;;;;;5094154;28;20486;-64
2023/10/03 04:23:42;;;;;;;3.20;2.13;;;13.70;99.90;;;;;;5094448;28;20787;-64
2023/10/03 04:26:08;;;;;;;2.00;1.90;;;13.70;99.90;;;;;;5093820;28;20538;-66
2023/10/03 04:28:33;;;;;;;1.70;1.27;;;13.70;99.90;;;;;;5094183;28;20900;-59
2023/10/03 04:30:59;;;;;;;5.07;2.27;;;13.70;99.90;;;;;;5094142;28;20427;-59
2023/10/03 04:33:25;;;;;;;1.47;1.30;;;14.10;99.90;;;;;;5093805;28;20209;-59
2023/10/03 04:35:51;;;;;;;2.27;2.07;;;14.50;99.90;;;;;;5094308;28;20260;-58
2023/10/03 04:38:17;;;;;;;3.60;1.50;;;15.00;99.90;;;;;;5093979;28;20168;-60
2023/10/03 04:40:45;;;;;;;1.97;1.87;;;15.40;99.90;;;;;;5093998;28;20518;-63
2023/10/03 04:43:14;;;;;;;1.70;1.53;;;15.80;99.90;;;;;;5093766;28;20410;-64
2023/10/03 04:45:40;;;;;;;2.37;1.50;;;15.80;99.60;;;;;;5093173;28;20407;-64
2023/10/03 04:48:07;;;;;;;3.03;2.23;;;15.60;98.60;;;;;;5093550;28;20403;-64
2023/10/03 04:50:35;;;;;;;4.67;1.60;;;15.40;98.70;;;;;;5093385;28;20942;-64
2023/10/03 04:53:02;;;;;;;1.80;1.40;;;15.10;98.60;;;;;;5093679;28;20426;-63
2023/10/03 04:55:28;;;;;;;3.03;1.90;;;14.90;99.10;;;;;;5093611;28;20426;-63
2023/10/03 04:57:55;;;;;;;6.80;1.30;;;14.60;99.50;;;;;;5093087;28;20407;-64
2023/10/03 05:00:22;;;;;;;1.67;1.20;;;14.50;99.90;;;;;;5093476;28;20431;-64
2023/10/03 05:02:51;;;;;;;1.57;1.33;;;14.30;99.90;;;;;;5093591;28;20550;-64
2023/10/03 05:05:26;;;;;;;1.87;1.77;;;14.20;99.90;;;;;;5093217;28;20407;-64
2023/10/03 05:07:58;;;;;;;3.13;1.83;;;14.10;99.90;;;;;;5092673;28;20491;-64
2023/10/03 05:10:29;;;;;;;1.90;1.07;;;14.00;99.90;;;;;;5092961;28;20442;-64
2023/10/03 05:12:54;;;;;;;2.27;1.97;;;14.00;99.90;;;;;;5093447;28;20411;-64
2023/10/03 05:15:20;;;;;;;1.30;1.20;;;13.90;99.90;;;;;;5092949;28;20414;-64
2023/10/03 05:17:48;;;;;;;1.60;1.50;;;13.90;99.90;;;;;;5092888;28;20553;-63
2023/10/03 05:20:17;;;;;;;8.77;2.67;;;13.90;99.90;;;;;;5092856;28;20450;-64
2023/10/03 05:22:46;;;;;;;1.70;1.60;;;13.90;99.90;;;;;;5092983;28;20401;-63
2023/10/03 05:25:13;;;;;;;1.90;1.40;;;13.90;99.90;;;;;;5093201;28;20411;-64
2023/10/03 05:27:42;;;;;;;4.03;2.00;;;13.90;99.90;;;;;;5092726;28;20451;-64
2023/10/03 05:30:10;;;;;;;5.17;2.50;;;13.90;99.90;;;;;;5092961;28;20950;-63
2023/10/03 05:32:37;;;;;;;1.83;1.30;;;13.90;99.90;;;;;;5093038;28;20428;-64
2023/10/03 05:35:05;;;;;;;1.27;1.17;;;13.90;99.90;;;;;;5092893;28;20414;-64
2023/10/03 05:37:33;;;;;;;1.37;1.13;;;13.90;99.90;;;;;;5092730;28;20427;-63
2023/10/03 05:39:59;;;;;;;9.03;2.63;;;13.90;99.90;;;;;;5092633;28;20477;-63
2023/10/03 05:42:26;;;;;;;3.97;2.87;;;14.00;99.90;;;;;;5092733;28;20415;-63
2023/10/03 05:44:53;;;;;;;2.87;1.30;;;14.10;99.90;;;;;;5092044;28;20506;-63
2023/10/03 05:47:19;;;;;;;2.90;2.17;;;14.20;99.90;;;;;;5092091;28;20457;-63
2023/10/03 05:49:45;;;;;;;1.00;1.00;;;14.20;99.90;;;;;;5092154;28;20433;-63
2023/10/03 05:52:11;;;;;;;3.17;1.67;;;14.20;99.90;;;;;;5092851;28;20900;-64
2023/10/03 05:54:37;;;;;;;2.30;1.33;;;14.20;99.90;;;;;;5092365;28;20514;-64
2023/10/03 05:57:03;;;;;;;1.00;0.90;;;14.30;99.90;;;;;;5092175;28;20494;-63
2023/10/03 05:59:29;;;;;;;1.80;1.00;;;14.20;99.90;;;;;;5092336;28;20707;-64
2023/10/03 06:01:57;;;;;;;2.83;2.07;;;14.30;99.90;;;;;;5092544;28;20501;-63
2023/10/03 06:04:23;;;;;;;2.27;2.03;;;14.30;99.90;;;;;;5092235;28;20411;-63
2023/10/03 06:06:49;;;;;;;2.50;1.30;;;14.40;99.90;;;;;;5091955;28;20797;-63
2023/10/03 06:09:15;;;;;;;1.77;1.20;;;14.40;99.90;;;;;;5091763;28;20419;-64
2023/10/03 06:11:42;;;;;;;1.00;1.00;;;14.40;99.90;;;;;;5091543;28;20457;-63
2023/10/03 06:14:08;;;;;;;2.00;1.83;;;14.50;99.90;;;;;;5091373;28;20181;-64
2023/10/03 06:16:36;;;;;;;5.07;1.90;;;14.60;99.90;;;;;;5090305;28;20417;-63
2023/10/03 06:19:01;;;;;;;3.10;1.30;;;14.60;99.90;;;;;;5090675;28;20421;-63
2023/10/03 06:21:27;;;;;;;2.03;1.93;;;14.70;99.90;;;;;;5093259;28;20904;-63
2023/10/03 06:23:53;;;;;;;1.80;1.13;;;14.80;99.90;;;;;;5092078;28;20172;-64
2023/10/03 06:26:18;;;;;;;2.13;1.93;;;14.80;99.90;;;;;;5090912;28;20199;-63
2023/10/03 06:28:50;;;;;;;2.10;1.80;;;14.90;99.90;;;;;;5091710;28;20642;-63
2023/10/03 06:31:17;;;;;;;2.03;1.83;;;14.90;99.90;;;;;;5091647;28;20199;-63
2023/10/03 06:33:43;;;;;;;3.40;1.63;;;14.90;99.90;;;;;;5091712;28;20407;-63
2023/10/03 06:36:09;;;;;;;5.00;2.33;;;15.00;99.90;;;;;;5091729;28;20406;-63
2023/10/03 06:38:36;;;;;;;1.70;1.40;;;15.10;99.70;;;;;;5091669;28;20410;-63
2023/10/03 06:41:05;;;;;;;4.87;1.57;;;15.20;99.50;;;;;;5091596;28;20431;-64
2023/10/03 06:43:32;;;;;;;1.30;0.90;;;15.20;99.20;;;;;;5091793;28;20418;-63
2023/10/03 06:45:58;;;;;;;2.83;2.63;;;15.30;99.00;;;;;;5091256;28;20414;-63
2023/10/03 06:48:24;;;;;;;3.17;1.57;;;15.40;98.80;;;;;;5091841;28;20439;-63
2023/10/03 06:50:53;;;;;;;1.97;1.80;;;15.70;98.90;;;;;;5091092;28;20682;-63
2023/10/03 06:53:19;;;;;;;3.00;1.10;;;16.60;99.30;;;;;;5091591;28;20402;-63
2023/10/03 06:55:45;;;;;;;4.20;2.37;;;17.60;99.00;;;;;;5090948;28;20434;-64
2023/10/03 06:58:11;;;;;;;2.53;1.87;;;18.80;97.70;;;;;;5090883;28;20413;-64
2023/10/03 07:00:38;;;;;;;1.90;1.63;;;20.30;95.40;;;;;;5091191;28;20427;-64
2023/10/03 07:03:04;;;;;;;8.10;3.50;;;22.10;92.30;;;;;;5091610;28;20583;-64
2023/10/03 07:05:29;;;;;;;3.37;1.80;;;24.00;90.40;;;;;;5091449;28;20429;-64
2023/10/03 07:07:55;;;;;;;3.73;1.60;;;25.70;83.10;;;;;;5091163;28;20458;-63
2023/10/03 07:10:21;;;;;;;1.57;1.47;;;27.30;75.70;;;;;;5091511;28;20195;-64
2023/10/03 07:12:47;;;;;;;2.40;2.00;;;28.80;69.20;;;;;;5091458;28;20255;-64
2023/10/03 07:15:13;;;;;;;5.00;2.93;;;29.90;63.90;;;;;;5091308;28;20430;-65
2023/10/03 07:17:39;;;;;;;3.23;2.73;;;30.70;59.70;;;;;;5091117;28;20603;-64
2023/10/03 07:20:07;;;;;;;2.63;2.03;;;31.20;56.60;;;;;;5091235;28;20208;-62
2023/10/03 07:22:33;;;;;;;4.53;2.70;;;31.40;54.40;;;;;;5093884;28;20199;-62
2023/10/03 07:24:59;;;;;;;2.90;2.67;;;31.50;54.00;;;;;;5095430;28;20415;-62
2023/10/03 07:27:25;;;;;;;3.23;2.73;;;31.50;53.50;;;;;;5094647;28;20200;-63
2023/10/03 07:29:50;;;;;;;2.77;2.47;;;31.70;52.90;;;;;;5095060;28;20218;-62
2023/10/03 07:32:16;;;;;;;3.63;2.30;;;32.40;51.90;;;;;;5094968;28;20177;-63
2023/10/03 07:34:43;;;;;;;4.93;2.43;;;32.80;51.00;;;;;;5095344;28;20177;-62
2023/10/03 07:37:15;;;;;;;2.43;2.00;;;33.50;50.70;;;;;;5094659;28;20263;-62
2023/10/03 07:39:42;;;;;;;3.63;2.67;;;34.20;49.20;;;;;;5095539;28;20473;-63
2023/10/03 07:42:08;;;;;;;2.80;2.40;;;34.70;47.40;;;;;;5094657;28;20439;-62
2023/10/03 07:44:35;;;;;;;2.73;1.57;;;35.00;46.50;;;;;;5094917;28;20434;-62
2023/10/03 07:47:01;;;;;;;3.30;2.23;;;34.90;43.70;;;;;;5094730;28;20458;-62
2023/10/03 07:49:28;;;;;;;2.80;2.40;;;34.40;44.30;;;;;;5095065;28;20826;-62
2023/10/03 07:51:56;;;;;;;2.70;2.20;;;33.70;45.70;;;;;;5094894;28;20641;-62
2023/10/03 07:54:21;;;;;;;4.43;2.10;;;32.80;45.00;;;;;;5094894;28;20419;-63
2023/10/03 07:56:48;;;;;;;3.63;2.43;;;32.60;45.90;;;;;;5094437;28;20413;-63
2023/10/03 07:59:14;;;;;;;3.47;3.17;;;33.30;45.80;;;;;;5076518;28;20173;-63
2023/10/03 08:01:40;;;;;;;3.07;2.00;;;34.40;44.50;;;;;;5094650;28;20406;-63
2023/10/03 08:04:12;;;;;;;4.87;2.00;;;35.30;41.90;;;;;;5094723;28;20687;-64
2023/10/03 08:06:39;;;;;;;3.57;2.40;;;35.80;40.50;;;;;;5094433;28;20519;-63
2023/10/03 08:09:06;;;;;;;4.67;2.23;;;36.30;39.60;;;;;;5094606;28;20430;-63
2023/10/03 08:11:32;;;;;;;2.00;1.60;;;36.60;39.50;;;;;;5094418;28;20415;-63
2023/10/03 08:14:13;;;;;;;1.97;1.87;;;37.10;36.60;;;;;;5094799;28;20479;-63
2023/10/03 08:16:41;;;;;;;2.73;1.80;;;37.70;35.50;;;;;;5093744;28;20410;-62
2023/10/03 08:19:21;;;;;;;1.57;1.40;;;36.70;33.10;;;;;;5094782;28;20475;-62
2023/10/03 08:21:52;;;;;;;1.87;1.73;;;36.20;36.30;;;;;;5100286;22;20483;-64
2023/10/03 08:24:24;;;;;;;2.10;1.60;;;36.80;36.10;;;;;;5051938;28;20417;-63
2023/10/03 08:26:51;;;;;;;2.10;1.80;;;37.30;33.90;;;;;;5053611;28;20488;-64
2023/10/03 08:29:21;;;;;;;2.50;1.90;;;37.70;34.10;;;;;;5053956;28;20501;-63
2023/10/03 08:31:49;;;;;;;1.90;1.63;;;37.80;33.90;;;;;;5053204;28;20424;-64
2023/10/03 08:34:16;;;;;;;3.63;2.10;;;38.00;32.40;;;;;;5052685;28;20409;-63
2023/10/03 08:36:42;;;;;;;3.40;2.20;;;38.20;31.80;;;;;;5053307;28;20416;-63
2023/10/03 08:39:14;;;;;;;1.70;1.60;;;38.70;33.80;;;;;;5053550;28;20438;-62
2023/10/03 08:41:46;;;;;;;2.27;1.80;;;38.90;31.90;;;;;;5053734;28;20609;-63
2023/10/03 08:44:12;;;;;;;1.97;1.87;;;39.10;31.00;;;;;;5053548;28;20409;-63
2023/10/03 08:46:55;;;;;;;2.40;2.20;;;39.30;30.90;;;;;;5053261;28;20452;-63
2023/10/03 08:49:28;;;;;;;2.40;2.20;;;39.40;31.40;;;;;;5053499;28;20408;-63
2023/10/03 08:52:01;;;;;;;1.60;1.50;;;39.60;30.40;;;;;;5053834;28;20455;-63
2023/10/03 08:54:27;;;;;;;4.20;2.60;;;39.50;30.30;;;;;;5053302;28;20440;-63
2023/10/03 08:56:59;;;;;;;3.23;2.30;;;39.80;30.00;;;;;;5052792;28;20408;-63
2023/10/03 08:59:25;;;;;;;3.40;1.80;;;39.40;30.60;;;;;;5053717;28;20429;-63
2023/10/03 09:01:52;;;;;;;4.27;2.30;;;38.10;30.80;;;;;;5053589;28;20926;-63
2023/10/03 09:04:18;;;;;;;2.43;1.90;;;37.90;32.00;;;;;;5053343;28;20791;-63
2023/10/03 09:06:50;;;;;;;2.70;2.00;;;37.80;32.40;;;;;;5053059;28;20980;-63
2023/10/03 09:09:16;;;;;;;3.27;2.17;;;38.00;31.70;;;;;;5036013;28;20451;-63
2023/10/03 09:11:51;;;;;;;2.60;2.00;;;37.90;33.10;;;;;;5053140;28;20436;-63
2023/10/03 09:14:20;;;;;;;4.23;2.13;;;38.20;31.70;;;;;;5053433;28;20174;-63
2023/10/03 09:16:51;;;;;;;1.90;1.67;;;38.30;32.10;;;;;;5052660;28;20404;-63
2023/10/03 09:19:26;;;;;;;2.73;1.50;;;38.80;31.90;;;;;;5053084;28;20409;-63
2023/10/03 09:21:54;;;;;;;1.60;1.50;;;39.10;31.40;;;;;;5052753;28;20459;-65
2023/10/03 09:24:25;;;;;;;2.40;2.20;;;39.50;31.90;;;;;;5053046;28;20404;-64
2023/10/03 09:26:54;;;;;;;5.17;2.10;;;39.60;30.40;;;;;;5052417;28;20456;-64
2023/10/03 09:29:32;;;;;;;2.43;2.20;;;39.10;29.90;;;;;;5052442;28;20408;-63
2023/10/03 09:32:12;;;;;;;2.50;1.83;;;37.70;31.90;;;;;;5052633;28;20473;-64
2023/10/03 09:34:41;;;;;;;2.30;2.10;;;36.70;33.50;;;;;;5052946;28;20466;-64
2023/10/03 09:37:07;;;;;;;2.13;1.70;;;36.60;33.70;;;;;;5052473;28;20419;-64
2023/10/03 09:39:47;;;;;;;1.67;1.57;;;36.30;34.00;;;;;;5052738;28;20428;-63
2023/10/03 09:42:18;;;;;;;2.60;2.40;;;35.20;35.50;;;;;;5052597;28;20429;-64
2023/10/03 09:44:57;;;;;;;1.70;1.60;;;33.90;36.10;;;;;;5051736;28;20928;-63
2023/10/03 09:47:34;;;;;;;3.20;1.97;;;33.40;37.70;;;;;;5052243;28;20543;-64
2023/10/03 09:50:05;;;;;;;3.33;2.47;;;33.30;39.40;;;;;;5052191;28;20420;-63
2023/10/03 09:52:32;;;;;;;3.67;2.40;;;32.10;41.50;;;;;;5051529;28;20431;-62
2023/10/03 09:55:00;;;;;;;2.67;2.03;;;31.90;41.50;;;;;;5052171;28;20488;-63
2023/10/03 09:57:30;;;;;;;3.37;2.37;;;31.30;42.90;;;;;;5052202;28;20440;-63
2023/10/03 10:00:00;;;;;;;2.17;1.70;;;31.60;43.60;;;;;;5052327;28;20417;-62
2023/10/03 10:02:31;;;;;;;2.47;2.00;;;31.40;43.70;;;;;;5052251;28;20425;-63
2023/10/03 10:05:21;;;;;;;2.23;2.03;;;30.90;44.00;;;;;;5052338;28;20443;-63
2023/10/03 10:07:50;;;;;;;6.53;3.20;;;30.50;46.40;;;;;;5051835;28;20464;-62
2023/10/03 10:10:19;;;;;;;1.93;1.70;;;30.40;46.00;;;;;;5052212;28;20413;-63
2023/10/03 10:13:04;;;;;;;5.77;2.00;;;30.80;46.00;;;;;;5051947;28;20551;-62
2023/10/03 10:15:30;;;;;;;6.03;3.20;;;30.50;45.20;;;;;;5051719;28;20753;-62
2023/10/03 10:17:56;;;;;;;2.30;2.10;;;30.60;46.20;;;;;;5050860;28;20396;-62
2023/10/03 10:20:34;;;;;;;2.70;2.23;;;30.80;44.80;;;;;;5051831;28;20771;-63
2023/10/03 10:23:12;;;;;;;4.40;2.53;;;30.90;46.40;;;;;;5050326;28;20221;-62
2023/10/03 10:25:42;;;;;;;3.30;3.00;;;30.80;45.90;;;;;;5051516;28;20396;-63
2023/10/03 10:28:17;;;;;;;2.33;2.00;;;30.30;46.20;;;;;;5051406;28;20498;-62
2023/10/03 10:31:17;;;;;;;2.20;1.60;;;30.40;44.70;;;;;;5051551;28;20412;-63
2023/10/03 10:33:44;;;;;;;4.10;2.47;;;30.20;44.60;;;;;;5051938;28;20409;-62
2023/10/03 10:36:10;;;;;;;4.63;2.47;;;29.90;45.80;;;;;;5051439;28;20412;-62
2023/10/03 10:38:35;;;;;;;2.03;1.83;;;29.60;46.60;;;;;;5051593;28;20496;-62
2023/10/03 10:41:24;;;;;;;1.73;1.63;;;29.50;47.20;;;;;;5051447;28;20428;-62
2023/10/03 10:44:08;;;;;;;3.50;3.20;;;29.50;46.50;;;;;;5051867;28;20182;-62
2023/10/03 10:46:39;;;;;;;2.10;1.80;;;29.20;47.90;;;;;;5051269;28;20444;-62
2023/10/03 10:49:31;;;;;;;3.30;2.90;;;28.90;46.80;;;;;;5051328;28;20470;-62
2023/10/03 10:52:02;;;;;;;2.37;1.93;;;28.30;48.90;;;;;;5023389;28;20444;-62
2023/10/03 10:54:28;;;;;;;4.50;2.60;;;28.10;50.90;;;;;;5051216;28;20407;-62
2023/10/03 10:57:01;;;;;;;1.73;1.40;;;27.90;48.90;;;;;;5050642;28;20403;-62
2023/10/03 10:59:28;;;;;;;2.20;1.80;;;27.90;51.70;;;;;;5060243;28;20796;-63
2023/10/03 11:01:54;;;;;;;1.83;1.73;;;27.80;51.80;;;;;;5070874;28;20443;-62
2023/10/03 11:04:24;;;;;;;3.17;2.43;;;27.80;50.10;;;;;;5062590;28;20427;-61
2023/10/03 11:06:52;;;;;;;2.27;2.00;;;27.70;49.90;;;;;;5053685;28;20186;-62
2023/10/03 11:09:20;;;;;;;3.97;2.30;;;27.40;51.60;;;;;;5071241;28;20798;-62
2023/10/03 11:11:47;;;;;;;3.13;2.80;;;27.30;52.60;;;;;;5065924;28;20941;-62
2023/10/03 11:14:29;;;;;;;1.83;1.67;;;27.40;52.00;;;;;;5051081;28;20837;-62
2023/10/03 11:16:56;;;;;;;2.60;2.40;;;27.50;52.60;;;;;;5050880;28;20413;-63
2023/10/03 11:19:25;;;;;;;2.27;1.90;;;27.50;52.90;;;;;;5051189;28;20409;-61
2023/10/03 11:21:53;;;;;;;2.90;2.30;;;27.50;52.10;;;;;;5068820;28;20519;-62
2023/10/03 11:24:20;;;;;;;3.80;1.90;;;27.20;51.80;;;;;;5071163;28;20992;-62
2023/10/03 11:26:52;;;;;;;2.93;2.37;;;27.20;52.90;;;;;;5070561;28;20443;-62
2023/10/03 11:29:49;;;;;;;3.80;2.87;;;27.10;55.10;;;;;;5071358;28;20689;-61
2023/10/03 11:32:29;;;;;;;2.53;1.90;;;27.20;52.90;;;;;;5026576;28;20440;-62
2023/10/03 11:34:57;;;;;;;3.87;2.70;;;27.00;54.90;;;;;;5071003;28;20447;-61
2023/10/03 11:37:39;;;;;;;2.23;1.90;;;27.10;54.20;;;;;;5065481;28;20419;-62
2023/10/03 11:40:23;;;;;;;4.90;2.53;;;26.80;53.30;;;;;;5050936;28;20393;-61
2023/10/03 11:42:54;;;;;;;3.17;2.43;;;26.40;54.10;;;;;;5050979;28;20418;-62
2023/10/03 11:45:22;;;;;;;4.57;2.40;;;26.40;54.30;;;;;;5050788;28;20926;-61
2023/10/03 11:48:01;;;;;;;3.30;2.63;;;26.40;55.90;;;;;;5050532;28;20526;-61
2023/10/03 11:50:28;;;;;;;3.53;1.47;;;26.30;55.70;;;;;;5050797;28;20454;-61
2023/10/03 11:52:58;;;;;;;6.43;2.23;;;26.20;56.50;;;;;;5050720;28;20421;-62
2023/10/03 11:55:25;;;;;;;2.50;2.30;;;25.90;56.90;;;;;;5050482;28;20445;-62
2023/10/03 11:57:51;;;;;;;3.03;2.83;;;25.70;57.00;;;;;;5049939;28;20495;-61
2023/10/03 12:00:17;;;;;;;8.20;2.80;;;25.40;57.60;;;;;;5051267;28;20463;-61
2023/10/03 12:02:45;;;;;;;2.20;2.00;;;25.20;57.90;;;;;;5050467;28;20186;-61
2023/10/03 12:05:14;;;;;;;5.30;3.13;;;25.20;59.90;;;;;;5031068;28;20742;-62
2023/10/03 12:07:45;;;;;;;1.87;1.73;;;25.20;58.60;;;;;;5030433;28;20964;-61
2023/10/03 12:10:12;;;;;;;2.40;2.20;;;25.00;58.30;;;;;;5034108;28;20405;-61
2023/10/03 12:12:38;;;;;;;2.63;2.40;;;25.00;59.40;;;;;;5033412;28;20831;-62
2023/10/03 12:15:12;;;;;;;5.60;2.97;;;24.70;61.50;;;;;;5034255;28;20405;-61
2023/10/03 12:17:42;;;;;;;6.03;3.33;;;24.70;60.00;;;;;;5033928;28;20440;-61
2023/10/03 12:20:12;;;;;;;1.87;1.77;;;25.00;59.80;;;;;;5034225;28;20936;-62
2023/10/03 12:22:44;;;;;;;3.83;2.67;;;25.00;59.20;;;;;;5034081;28;20453;-62
2023/10/03 12:25:12;;;;;;;2.10;1.90;;;25.00;60.00;;;;;;5034155;28;20503;-62
2023/10/03 12:27:38;;;;;;;3.00;2.40;;;25.00;59.20;;;;;;5033765;28;20993;-62
2023/10/03 12:30:08;;;;;;;3.33;2.40;;;24.90;61.90;;;;;;5033976;28;20380;-62
2023/10/03 12:32:34;;;;;;;2.33;1.87;;;25.00;59.10;;;;;;5033912;28;20407;-62
2023/10/03 12:35:00;;;;;;;2.83;2.30;;;25.00;60.20;;;;;;5034060;28;20383;-62
2023/10/03 12:37:26;;;;;;;2.53;2.33;;;24.90;59.40;;;;;;5033676;28;20385;-62
2023/10/03 12:39:52;;;;;;;3.27;1.83;;;24.90;59.70;;;;;;5033976;28;20380;-61
2023/10/03 12:42:18;;;;;;;2.87;2.67;;;24.80;59.30;;;;;;5033904;28;20199;-61
2023/10/03 12:44:44;;;;;;;4.27;2.60;;;24.60;59.80;;;;;;5033744;28;20683;-61
2023/10/03 12:47:09;;;;;;;1.87;1.77;;;24.40;60.60;;;;;;5033422;28;20428;-62
2023/10/03 12:49:35;;;;;;;1.77;1.67;;;24.40;62.20;;;;;;5048385;28;20201;-61
2023/10/03 12:52:02;;;;;;;3.73;3.40;;;24.00;62.30;;;;;;5053522;28;20667;-62
2023/10/03 12:54:27;;;;;;;2.87;2.53;;;23.80;64.00;;;;;;5053751;28;20547;-62
2023/10/03 12:56:53;;;;;;;3.70;2.80;;;23.90;63.00;;;;;;5053332;28;20412;-61